Time;durP1;ratioP1;P1;durP2;ratioP2;P2;SDS_P1;SDS_P2;PMS_P1;PMS_P2;Temp;Humidity;BMP_temperature;BMP_pressure;BME280_temperature;BME280_humidity;BME280_pressure;Samples;Min_cycle;Max_cycle;Signal;HPM_P1;HPM_P2
2021/12/06 00:01:44;;;;;;;19.00;9.93;;;8.90;86.40;;;;;;1872870;76;21454;-40
2021/12/06 00:04:22;;;;;;;17.27;8.93;;;8.90;86.30;;;;;;1872739;76;21579;-41
2021/12/06 00:06:54;;;;;;;18.65;9.93;;;8.90;86.50;;;;;;1872869;77;21042;-40
2021/12/06 00:09:25;;;;;;;21.90;10.90;;;8.90;86.60;;;;;;1872780;76;21070;-40
2021/12/06 00:12:01;;;;;;;19.12;9.98;;;8.90;86.60;;;;;;1872863;77;21035;-40
2021/12/06 00:14:33;;;;;;;19.48;10.43;;;8.90;86.40;;;;;;1872867;77;21027;-40
2021/12/06 00:17:05;;;;;;;24.20;11.57;;;8.90;86.30;;;;;;1872876;77;21447;-40
2021/12/06 00:19:35;;;;;;;22.50;9.73;;;8.90;86.30;;;;;;1871339;76;21497;-40
2021/12/06 00:22:07;;;;;;;20.75;10.53;;;8.90;86.20;;;;;;1872697;77;21084;-40
2021/12/06 00:24:36;;;;;;;20.88;10.68;;;8.90;86.40;;;;;;1872801;77;21023;-40
2021/12/06 00:27:07;;;;;;;23.62;10.38;;;8.90;86.50;;;;;;1872801;77;21112;-40
2021/12/06 00:29:37;;;;;;;19.32;10.15;;;8.80;86.60;;;;;;1872747;76;21119;-40
2021/12/06 00:32:07;;;;;;;20.88;9.95;;;8.90;87.10;;;;;;1873007;76;21031;-40
2021/12/06 00:34:38;;;;;;;20.60;10.05;;;8.90;87.20;;;;;;1872786;77;21003;-40
2021/12/06 00:37:28;;;;;;;21.45;10.85;;;8.90;87.20;;;;;;1872953;77;21012;-40
2021/12/06 00:39:54;;;;;;;20.97;10.78;;;9.00;87.30;;;;;;1872460;76;21055;-40
2021/12/06 00:42:25;;;;;;;20.70;9.68;;;9.10;87.30;;;;;;1872887;77;21046;-40
2021/12/06 00:44:56;;;;;;;19.32;9.80;;;9.20;87.00;;;;;;1872969;77;21117;-39
2021/12/06 00:47:26;;;;;;;21.05;11.55;;;9.20;87.20;;;;;;1885893;76;21124;-40
2021/12/06 00:49:55;;;;;;;20.50;9.90;;;9.20;87.00;;;;;;1891548;76;21010;-40
2021/12/06 00:52:25;;;;;;;21.85;10.43;;;9.30;87.20;;;;;;1891672;76;21089;-40
2021/12/06 00:54:55;;;;;;;21.40;10.43;;;9.30;86.90;;;;;;1891637;76;21030;-40
2021/12/06 00:57:24;;;;;;;22.80;11.53;;;9.30;87.50;;;;;;1891552;76;21046;-40
2021/12/06 00:59:54;;;;;;;22.07;12.05;;;9.30;87.10;;;;;;1891592;76;21084;-40
2021/12/06 01:02:24;;;;;;;20.48;11.55;;;9.30;87.10;;;;;;1891711;76;21076;-40
2021/12/06 01:04:53;;;;;;;19.37;10.58;;;9.30;86.90;;;;;;1891648;76;21131;-39
2021/12/06 01:07:23;;;;;;;20.45;11.68;;;9.20;87.00;;;;;;1891496;76;21085;-40
2021/12/06 01:09:52;;;;;;;20.55;10.82;;;9.20;87.00;;;;;;1891598;76;21023;-40
2021/12/06 01:12:21;;;;;;;20.12;11.00;;;9.20;87.10;;;;;;1891592;76;21641;-40
2021/12/06 01:14:51;;;;;;;20.95;11.30;;;9.20;86.80;;;;;;1891589;76;21098;-40
2021/12/06 01:17:21;;;;;;;24.65;11.50;;;9.20;86.80;;;;;;1891583;76;21084;-40
2021/12/06 01:19:51;;;;;;;21.30;11.65;;;9.10;86.90;;;;;;1891656;76;21020;-40
2021/12/06 01:22:26;;;;;;;24.32;11.93;;;9.10;87.20;;;;;;1891584;76;21093;-40
2021/12/06 01:25:02;;;;;;;24.30;11.68;;;9.10;87.40;;;;;;1891016;75;21034;-40
2021/12/06 01:28:03;;;;;;;20.70;11.28;;;9.10;87.30;;;;;;1891267;75;21050;-40
2021/12/06 01:30:27;;;;;;;25.12;11.63;;;9.00;87.00;;;;;;1888894;75;21050;-40
2021/12/06 01:41:07;;;;;;;19.80;9.93;;;8.90;87.10;;;;;;1891586;76;21034;-40
2021/12/06 01:43:37;;;;;;;23.02;9.95;;;8.80;87.30;;;;;;1891848;76;21476;-40
2021/12/06 01:46:07;;;;;;;23.42;11.65;;;8.80;87.20;;;;;;1891721;76;21034;-40
2021/12/06 01:48:36;;;;;;;24.67;11.35;;;8.80;87.30;;;;;;1891723;76;21058;-39
2021/12/06 01:51:06;;;;;;;21.02;10.95;;;8.70;87.30;;;;;;1891703;76;21026;-40
2021/12/06 01:53:35;;;;;;;21.95;10.88;;;8.70;87.40;;;;;;1891651;76;21445;-40
2021/12/06 01:56:05;;;;;;;21.05;11.55;;;8.60;87.40;;;;;;1891750;76;21027;-40
2021/12/06 01:58:34;;;;;;;20.32;9.98;;;8.60;87.50;;;;;;1891931;76;21074;-40
2021/12/06 02:01:04;;;;;;;23.07;10.50;;;8.60;87.50;;;;;;1891516;76;21139;-40
2021/12/06 02:03:34;;;;;;;20.27;10.03;;;8.50;87.50;;;;;;1891571;76;21155;-40
2021/12/06 02:06:04;;;;;;;22.70;11.78;;;8.60;87.50;;;;;;1891489;76;21143;-40
2021/12/06 02:08:33;;;;;;;20.70;10.08;;;8.50;87.80;;;;;;1891581;76;21144;-40
2021/12/06 02:11:04;;;;;;;21.27;11.30;;;8.50;87.70;;;;;;1891619;76;21088;-40
2021/12/06 02:13:51;;;;;;;19.75;10.15;;;8.50;87.80;;;;;;1891310;75;21014;-39
2021/12/06 02:16:13;;;;;;;18.32;9.33;;;8.40;87.60;;;;;;1890280;75;21062;-40
2021/12/06 02:18:47;;;;;;;18.82;9.18;;;8.40;87.70;;;;;;1891522;76;21147;-40
2021/12/06 02:21:25;;;;;;;18.52;9.63;;;8.40;87.50;;;;;;1891209;75;21132;-40
2021/12/06 02:23:53;;;;;;;19.30;8.95;;;8.40;87.60;;;;;;1891427;75;21112;-40
2021/12/06 02:26:24;;;;;;;20.02;9.63;;;8.40;87.50;;;;;;1891528;76;21043;-40
2021/12/06 02:28:53;;;;;;;20.40;10.85;;;8.40;87.80;;;;;;1891608;76;21026;-40
2021/12/06 02:31:25;;;;;;;24.77;9.68;;;8.40;87.70;;;;;;1891457;76;21027;-40
2021/12/06 02:33:55;;;;;;;21.02;10.72;;;8.30;87.90;;;;;;1891614;76;21026;-40
2021/12/06 02:36:26;;;;;;;20.72;10.90;;;8.30;88.00;;;;;;1891549;76;21034;-40
2021/12/06 02:38:55;;;;;;;24.40;11.18;;;8.30;88.30;;;;;;1891557;76;21030;-40
2021/12/06 02:41:25;;;;;;;16.52;9.30;;;8.30;88.60;;;;;;1891491;76;21112;-40
2021/12/06 02:43:56;;;;;;;21.68;9.95;;;8.30;88.40;;;;;;1891466;76;21042;-39
2021/12/06 02:46:26;;;;;;;19.00;9.45;;;8.30;88.50;;;;;;1891618;76;21026;-40
2021/12/06 02:48:56;;;;;;;22.98;11.30;;;8.40;88.60;;;;;;1875989;76;21471;-40
2021/12/06 02:51:27;;;;;;;25.30;11.60;;;8.40;88.70;;;;;;1872893;76;21093;-40
2021/12/06 02:53:56;;;;;;;23.02;9.93;;;8.50;89.00;;;;;;1872792;76;21051;-40
2021/12/06 02:56:33;;;;;;;20.95;10.23;;;8.50;88.60;;;;;;1872711;76;21027;-40
2021/12/06 02:59:02;;;;;;;;;;;8.50;88.50;;;;;;1875592;76;21046;-40
2021/12/06 03:01:35;;;;;;;24.67;11.78;;;8.50;88.50;;;;;;1872765;77;20131;-40
2021/12/06 03:04:05;;;;;;;19.50;9.68;;;8.40;88.10;;;;;;1860454;77;21513;-39
2021/12/06 03:06:35;;;;;;;24.37;10.98;;;8.40;87.50;;;;;;1872713;76;21051;-40
2021/12/06 03:09:13;;;;;;;19.10;10.63;;;8.30;88.30;;;;;;1872808;75;21100;-40
2021/12/06 03:11:52;;;;;;;23.73;10.78;;;8.40;88.60;;;;;;1860607;77;21082;-40
2021/12/06 03:14:27;;;;;;;24.23;10.95;;;8.30;88.30;;;;;;1872162;76;21161;-39
2021/12/06 03:16:59;;;;;;;20.43;9.85;;;8.30;88.40;;;;;;1872758;76;21513;-40
2021/12/06 03:19:30;;;;;;;23.02;11.18;;;8.30;88.50;;;;;;1872873;75;21114;-39
2021/12/06 03:21:59;;;;;;;22.60;11.53;;;8.40;88.60;;;;;;1872933;77;21023;-40
2021/12/06 03:24:29;;;;;;;23.65;10.90;;;8.30;88.30;;;;;;1872933;77;21085;-39
2021/12/06 03:26:59;;;;;;;23.47;11.40;;;8.30;88.50;;;;;;1872822;77;21007;-40
2021/12/06 03:29:28;;;;;;;24.82;11.85;;;8.30;88.50;;;;;;1872918;77;21019;-39
2021/12/06 03:31:58;;;;;;;22.07;10.75;;;8.30;88.70;;;;;;1872929;77;21101;-40
2021/12/06 03:34:29;;;;;;;24.50;10.28;;;8.30;89.00;;;;;;1872981;76;21081;-40
2021/12/06 03:37:01;;;;;;;21.48;11.00;;;8.20;88.60;;;;;;1873012;76;21121;-40
2021/12/06 03:39:37;;;;;;;21.27;9.93;;;8.30;89.00;;;;;;1872856;76;21482;-40
2021/12/06 03:42:09;;;;;;;20.17;10.20;;;8.30;88.90;;;;;;1873094;76;21031;-39
2021/12/06 03:44:40;;;;;;;21.82;11.25;;;8.30;88.90;;;;;;1873067;76;21118;-39
2021/12/06 03:47:12;;;;;;;30.62;12.53;;;8.40;89.10;;;;;;1872929;75;21157;-39
2021/12/06 03:49:45;;;;;;;19.45;9.00;;;8.40;88.70;;;;;;1872547;76;21093;-39
2021/12/06 03:52:15;;;;;;;20.52;9.63;;;8.30;88.70;;;;;;1872803;77;21043;-40
2021/12/06 03:54:49;;;;;;;24.25;9.80;;;8.30;88.70;;;;;;1872795;76;21100;-40
2021/12/06 03:57:19;;;;;;;20.90;9.33;;;8.30;89.00;;;;;;1872840;76;21030;-40
2021/12/06 03:59:51;;;;;;;24.43;10.05;;;8.40;89.40;;;;;;1872768;77;21081;-39
2021/12/06 04:02:23;;;;;;;17.95;9.05;;;8.50;89.60;;;;;;1872789;75;21004;-40
2021/12/06 04:04:54;;;;;;;20.92;9.43;;;8.50;89.60;;;;;;1872826;76;21035;-40
2021/12/06 04:07:24;;;;;;;23.10;9.43;;;8.60;89.80;;;;;;1873029;76;21089;-40
2021/12/06 04:09:53;;;;;;;19.12;9.43;;;8.60;89.50;;;;;;1873173;76;21023;-40
2021/12/06 04:12:23;;;;;;;19.02;9.25;;;8.60;89.10;;;;;;1872989;77;21027;-39
2021/12/06 04:14:53;;;;;;;18.52;9.43;;;8.50;89.10;;;;;;1873005;76;21079;-39
2021/12/06 04:17:22;;;;;;;19.82;8.60;;;8.60;89.30;;;;;;1872956;76;21023;-39
2021/12/06 04:19:51;;;;;;;23.52;9.98;;;8.50;89.30;;;;;;1873050;77;21019;-39
2021/12/06 04:22:22;;;;;;;24.60;9.65;;;8.50;89.60;;;;;;1872781;76;21023;-39
2021/12/06 04:24:51;;;;;;;40.43;15.98;;;8.60;89.80;;;;;;1872939;76;21055;-39
2021/12/06 04:27:22;;;;;;;26.30;10.70;;;8.70;89.80;;;;;;1872779;76;21043;-40
2021/12/06 04:29:52;;;;;;;23.12;10.55;;;8.70;89.70;;;;;;1872848;75;21002;-39
2021/12/06 04:32:23;;;;;;;40.23;19.50;;;8.70;89.80;;;;;;1872827;77;21085;-40
2021/12/06 04:34:54;;;;;;;22.35;10.28;;;8.70;89.80;;;;;;1873008;76;21105;-39
2021/12/06 04:37:23;;;;;;;23.95;10.40;;;8.70;89.70;;;;;;1872972;77;21031;-39
2021/12/06 04:39:54;;;;;;;24.67;9.83;;;8.70;89.80;;;;;;1872767;75;21015;-39
2021/12/06 04:42:24;;;;;;;25.08;10.08;;;8.80;89.90;;;;;;1872958;75;21093;-39
2021/12/06 04:44:53;;;;;;;20.92;9.53;;;8.90;89.90;;;;;;1872949;76;21031;-39
2021/12/06 04:47:23;;;;;;;29.00;10.58;;;8.90;90.00;;;;;;1872908;75;21114;-39
2021/12/06 04:49:52;;;;;;;23.42;9.48;;;9.00;90.00;;;;;;1872853;76;21035;-39
2021/12/06 04:52:22;;;;;;;23.02;9.73;;;9.00;89.90;;;;;;1872797;77;21019;-39
2021/12/06 04:54:54;;;;;;;25.80;8.13;;;9.00;89.70;;;;;;1872872;76;21007;-39
2021/12/06 04:57:35;;;;;;;21.40;8.48;;;8.90;89.80;;;;;;1873012;76;21054;-39
2021/12/06 05:00:27;;;;;;;23.07;9.88;;;8.90;89.60;;;;;;1872784;75;21089;-40
2021/12/06 05:02:57;;;;;;;30.50;9.98;;;8.90;89.90;;;;;;1872827;77;21003;-42
2021/12/06 05:05:32;;;;;;;62.60;14.30;;;8.80;89.80;;;;;;1872938;75;21089;-42
2021/12/06 05:08:06;;;;;;;30.88;9.98;;;8.80;89.90;;;;;;1872968;75;21478;-42
2021/12/06 05:10:36;;;;;;;26.30;9.55;;;8.80;90.20;;;;;;1872774;76;21167;-42
2021/12/06 05:13:05;;;;;;;21.90;8.88;;;8.70;89.70;;;;;;1872796;77;21563;-40
2021/12/06 05:15:38;;;;;;;21.90;9.23;;;8.70;89.80;;;;;;1872764;77;21026;-39
2021/12/06 05:18:08;;;;;;;25.00;10.95;;;8.60;89.80;;;;;;1872884;76;21519;-39
2021/12/06 05:20:37;;;;;;;49.83;9.95;;;8.60;89.90;;;;;;1872772;77;21105;-39
2021/12/06 05:23:10;;;;;;;23.25;9.08;;;8.60;90.00;;;;;;1872926;77;21096;-39
2021/12/06 05:25:40;;;;;;;24.20;8.63;;;8.60;90.00;;;;;;1872913;77;21097;-39
2021/12/06 05:28:09;;;;;;;21.75;9.03;;;8.60;90.10;;;;;;1872885;75;21542;-40
2021/12/06 05:30:42;;;;;;;27.77;9.00;;;8.70;90.10;;;;;;1872979;76;21138;-40
2021/12/06 05:33:17;;;;;;;26.40;8.75;;;8.70;90.20;;;;;;1872932;77;21473;-40
2021/12/06 05:35:42;;;;;;;29.18;9.48;;;8.70;90.10;;;;;;1872459;76;21054;-41
2021/12/06 05:38:13;;;;;;;23.52;9.80;;;8.80;90.20;;;;;;1872842;76;21034;-41
2021/12/06 05:40:43;;;;;;;20.37;9.13;;;8.90;90.30;;;;;;1872756;77;21027;-41
2021/12/06 05:43:13;;;;;;;23.27;9.88;;;8.90;90.30;;;;;;1872780;76;21043;-42
2021/12/06 05:45:42;;;;;;;23.80;9.08;;;9.00;90.20;;;;;;1872904;77;21031;-40
2021/12/06 05:48:12;;;;;;;20.90;8.70;;;9.00;90.00;;;;;;1872738;77;21097;-41
2021/12/06 05:50:41;;;;;;;17.82;8.20;;;9.00;90.10;;;;;;1888773;75;21038;-41
2021/12/06 05:53:11;;;;;;;23.45;9.08;;;9.00;90.10;;;;;;1891536;76;21081;-41
2021/12/06 05:55:41;;;;;;;24.20;8.88;;;9.00;90.20;;;;;;1891555;76;21206;-40
2021/12/06 05:58:12;;;;;;;21.60;8.48;;;9.00;90.20;;;;;;1891588;76;21058;-41
2021/12/06 06:00:42;;;;;;;18.12;9.80;;;9.00;90.20;;;;;;1891558;76;21034;-41
2021/12/06 06:03:13;;;;;;;22.98;9.18;;;9.00;90.30;;;;;;1891517;76;21114;-41
2021/12/06 06:05:42;;;;;;;23.05;9.90;;;8.90;90.30;;;;;;1891632;76;21076;-41
2021/12/06 06:08:12;;;;;;;18.60;8.25;;;9.00;90.30;;;;;;1891498;76;21089;-40
2021/12/06 06:10:42;;;;;;;22.07;9.50;;;9.00;90.30;;;;;;1891488;76;21024;-40
2021/12/06 06:13:11;;;;;;;25.30;9.28;;;9.00;90.40;;;;;;1891567;76;21026;-41
2021/12/06 06:15:41;;;;;;;19.90;10.23;;;9.00;90.00;;;;;;1891518;76;21084;-40
2021/12/06 06:18:11;;;;;;;29.07;11.08;;;9.00;89.80;;;;;;1891530;76;21088;-41
2021/12/06 06:20:48;;;;;;;28.62;10.82;;;8.90;89.90;;;;;;1891465;76;21026;-41
2021/12/06 06:23:18;;;;;;;26.15;11.73;;;8.80;90.10;;;;;;1891666;76;21117;-41
2021/12/06 06:25:47;;;;;;;28.35;12.28;;;8.70;90.20;;;;;;1891396;76;21030;-40
2021/12/06 06:28:17;;;;;;;26.65;12.73;;;8.70;90.10;;;;;;1891394;76;21038;-40
2021/12/06 06:30:46;;;;;;;29.72;12.03;;;8.70;90.30;;;;;;1891428;76;21178;-40
2021/12/06 06:33:16;;;;;;;30.32;12.68;;;8.60;90.20;;;;;;1891587;76;21062;-40
2021/12/06 06:35:47;;;;;;;28.40;10.93;;;8.60;90.30;;;;;;1891660;76;21089;-40
2021/12/06 06:38:17;;;;;;;29.18;13.65;;;8.60;90.30;;;;;;1891574;76;21062;-40
2021/12/06 06:40:48;;;;;;;31.00;11.88;;;8.70;90.40;;;;;;1891436;76;21187;-40
2021/12/06 06:43:18;;;;;;;27.45;12.10;;;8.80;90.50;;;;;;1891390;76;21003;-40
2021/12/06 06:45:48;;;;;;;26.65;12.53;;;8.90;90.50;;;;;;1891544;76;21011;-40
2021/12/06 06:48:17;;;;;;;28.92;11.00;;;9.00;90.50;;;;;;1891471;76;21034;-40
2021/12/06 06:50:46;;;;;;;28.60;11.63;;;9.10;90.30;;;;;;1891650;76;21176;-41
2021/12/06 06:53:16;;;;;;;23.55;10.93;;;9.10;90.30;;;;;;1891534;76;21058;-40
2021/12/06 06:55:45;;;;;;;25.43;12.23;;;9.20;90.30;;;;;;1891590;76;21090;-40
2021/12/06 06:58:14;;;;;;;26.93;11.85;;;9.20;90.10;;;;;;1891609;76;21026;-40
2021/12/06 07:00:44;;;;;;;26.97;11.18;;;9.20;90.00;;;;;;1891584;76;21457;-40
2021/12/06 07:03:13;;;;;;;26.33;12.15;;;9.20;90.00;;;;;;1891525;76;21023;-40
2021/12/06 07:05:43;;;;;;;25.05;12.95;;;9.20;90.00;;;;;;1891590;76;21065;-40
2021/12/06 07:08:12;;;;;;;31.70;12.60;;;9.20;90.00;;;;;;1891617;76;21034;-40
2021/12/06 07:10:41;;;;;;;27.55;12.23;;;9.20;90.20;;;;;;1891476;76;21085;-40
2021/12/06 07:13:12;;;;;;;25.32;12.35;;;9.30;90.20;;;;;;1891533;76;21026;-41
2021/12/06 07:15:41;;;;;;;24.70;12.03;;;9.40;90.20;;;;;;1891577;76;21026;-40
2021/12/06 07:18:11;;;;;;;23.47;11.95;;;9.40;90.10;;;;;;1891485;76;21038;-40
2021/12/06 07:20:40;;;;;;;24.15;12.00;;;9.40;90.00;;;;;;1891381;76;21117;-40
2021/12/06 07:23:10;;;;;;;23.02;11.43;;;9.40;90.00;;;;;;1891506;76;21006;-40
2021/12/06 07:25:40;;;;;;;30.12;13.13;;;9.40;89.70;;;;;;1891481;76;21006;-40
2021/12/06 07:28:09;;;;;;;27.85;12.37;;;9.50;89.90;;;;;;1891472;76;21026;-40
2021/12/06 07:30:39;;;;;;;25.70;13.18;;;9.40;89.90;;;;;;1891535;76;21053;-41
2021/12/06 07:33:08;;;;;;;32.98;14.00;;;9.40;89.90;;;;;;1891548;76;21034;-40
2021/12/06 07:35:37;;;;;;;32.75;12.75;;;9.40;89.80;;;;;;1891403;76;21011;-40
2021/12/06 07:38:07;;;;;;;30.62;13.05;;;9.40;89.80;;;;;;1891546;76;21073;-40
2021/12/06 07:40:37;;;;;;;30.57;12.63;;;9.40;90.00;;;;;;1891352;76;21069;-40
2021/12/06 07:43:06;;;;;;;30.88;13.70;;;9.40;89.90;;;;;;1891525;76;21151;-40
2021/12/06 07:45:35;;;;;;;36.70;14.63;;;9.40;89.80;;;;;;1891501;76;21088;-40
2021/12/06 07:48:06;;;;;;;38.50;14.73;;;9.40;89.90;;;;;;1891484;76;21006;-40
2021/12/06 07:50:35;;;;;;;33.42;15.32;;;9.40;90.00;;;;;;1885531;76;21055;-40
2021/12/06 07:53:05;;;;;;;32.60;14.38;;;9.50;90.10;;;;;;1872723;76;21023;-40
2021/12/06 07:55:35;;;;;;;35.40;15.48;;;9.50;89.80;;;;;;1872786;77;21019;-41
2021/12/06 07:58:07;;;;;;;43.92;16.57;;;9.50;90.00;;;;;;1872700;77;21043;-41
2021/12/06 08:00:38;;;;;;;40.80;16.57;;;9.50;89.80;;;;;;1872865;76;21168;-41
2021/12/06 08:03:08;;;;;;;37.33;15.88;;;9.50;89.80;;;;;;1872674;76;21085;-41
2021/12/06 08:05:39;;;;;;;48.30;18.62;;;9.50;89.70;;;;;;1872661;77;21031;-41
2021/12/06 08:08:14;;;;;;;32.75;13.95;;;9.40;90.20;;;;;;1872388;77;21023;-39
2021/12/06 08:10:46;;;;;;;33.55;12.58;;;9.40;90.00;;;;;;1871563;75;21090;-40
2021/12/06 08:13:18;;;;;;;17.70;9.23;;;9.50;90.50;;;;;;1872096;77;21023;-41
2021/12/06 08:15:47;;;;;;;31.25;14.73;;;9.70;91.10;;;;;;1872087;76;21094;-40
2021/12/06 08:18:17;;;;;;;38.95;16.00;;;10.00;91.10;;;;;;1871886;77;21067;-45
2021/12/06 08:20:47;;;;;;;39.05;16.15;;;10.10;90.20;;;;;;1872013;77;21059;-41
2021/12/06 08:23:17;;;;;;;37.63;14.93;;;10.10;89.80;;;;;;1872043;77;21030;-42
2021/12/06 08:25:48;;;;;;;38.55;15.75;;;10.00;90.00;;;;;;1872077;77;21027;-41
2021/12/06 08:28:18;;;;;;;37.67;15.78;;;10.00;90.00;;;;;;1872134;77;21022;-43
2021/12/06 08:30:48;;;;;;;36.70;16.95;;;10.00;90.00;;;;;;1872076;77;21046;-40
2021/12/06 08:33:19;;;;;;;39.45;16.52;;;10.00;90.00;;;;;;1872374;77;21504;-41
2021/12/06 08:35:52;;;;;;;39.55;15.20;;;10.00;89.60;;;;;;1872244;77;21003;-41
2021/12/06 08:38:22;;;;;;;40.70;16.95;;;9.90;89.80;;;;;;1875466;75;21021;-42
2021/12/06 08:40:52;;;;;;;43.30;16.55;;;9.90;89.80;;;;;;1872048;75;21040;-41
2021/12/06 08:43:22;;;;;;;43.13;17.17;;;9.90;90.00;;;;;;1872202;75;21055;-41
2021/12/06 08:46:00;;;;;;;49.40;17.23;;;9.90;90.10;;;;;;1871889;75;21099;-40
2021/12/06 08:48:31;;;;;;;43.50;17.65;;;10.00;90.10;;;;;;1871890;75;21080;-40
2021/12/06 08:51:03;;;;;;;47.45;16.82;;;10.00;90.10;;;;;;1871856;75;21073;-40
2021/12/06 08:53:33;;;;;;;39.50;15.32;;;10.00;89.90;;;;;;1872086;75;21596;-43
2021/12/06 08:56:02;;;;;;;37.30;16.20;;;10.00;90.00;;;;;;1872096;75;21162;-42
2021/12/06 08:58:32;;;;;;;39.13;15.58;;;10.10;89.70;;;;;;1872224;76;21064;-44
2021/12/06 09:01:01;;;;;;;37.08;14.93;;;10.00;90.00;;;;;;1872084;75;21076;-42
2021/12/06 09:03:30;;;;;;;30.43;12.75;;;10.10;89.50;;;;;;1872204;75;21005;-42
2021/12/06 09:06:01;;;;;;;37.67;15.58;;;10.00;89.50;;;;;;1872123;77;21033;-43
2021/12/06 09:08:30;;;;;;;37.63;14.38;;;10.00;89.50;;;;;;1872118;75;21091;-42
2021/12/06 09:11:00;;;;;;;34.30;13.25;;;9.90;89.60;;;;;;1872202;75;21150;-42
2021/12/06 09:13:30;;;;;;;86.22;48.68;;;10.00;89.90;;;;;;1872117;75;21088;-41
2021/12/06 09:16:02;;;;;;;76.90;46.70;;;10.00;90.00;;;;;;1872123;76;21126;-42
2021/12/06 09:18:37;;;;;;;27.05;14.55;;;10.10;89.90;;;;;;1872196;76;21143;-43
2021/12/06 09:21:10;;;;;;;36.93;14.95;;;10.00;89.50;;;;;;1872155;75;21174;-40
2021/12/06 09:23:39;;;;;;;52.55;19.40;;;10.00;89.50;;;;;;1872012;76;21520;-40
2021/12/06 09:26:10;;;;;;;43.85;18.32;;;10.00;89.80;;;;;;1872113;75;21209;-41
2021/12/06 09:28:40;;;;;;;36.75;15.15;;;10.00;89.80;;;;;;1872127;77;21154;-42
2021/12/06 09:31:10;;;;;;;41.98;18.25;;;10.00;89.90;;;;;;1871976;76;21076;-41
2021/12/06 09:33:40;;;;;;;35.65;15.32;;;10.00;89.90;;;;;;1872047;76;21090;-42
2021/12/06 09:36:10;;;;;;;39.18;15.88;;;10.00;90.10;;;;;;1872167;75;21068;-41
2021/12/06 09:38:40;;;;;;;36.58;15.95;;;10.00;89.90;;;;;;1872026;75;21100;-41
2021/12/06 09:41:12;;;;;;;43.38;22.60;;;10.00;90.00;;;;;;1872032;75;20997;-40
2021/12/06 09:43:42;;;;;;;42.03;18.17;;;10.00;90.00;;;;;;1872264;75;21102;-40
2021/12/06 09:46:12;;;;;;;37.83;16.42;;;10.10;90.10;;;;;;1872207;75;21060;-40
2021/12/06 09:48:43;;;;;;;35.68;16.17;;;10.10;90.00;;;;;;1872077;76;21115;-40
2021/12/06 09:51:15;;;;;;;39.40;17.30;;;10.10;89.90;;;;;;1872055;75;21060;-41
2021/12/06 09:53:46;;;;;;;35.55;16.10;;;10.10;89.90;;;;;;1871542;76;21173;-44
2021/12/06 09:56:19;;;;;;;43.50;18.23;;;10.10;90.10;;;;;;1872145;76;21037;-40
2021/12/06 09:58:48;;;;;;;39.18;15.23;;;10.10;90.00;;;;;;1872118;75;21052;-40
2021/12/06 10:01:21;;;;;;;30.37;14.58;;;10.10;90.00;;;;;;1872025;75;21084;-41
2021/12/06 10:03:53;;;;;;;34.63;16.10;;;10.10;90.00;;;;;;1872138;76;21025;-40
2021/12/06 10:06:23;;;;;;;38.53;14.90;;;10.10;90.00;;;;;;1872158;75;21064;-40
2021/12/06 10:08:55;;;;;;;31.90;13.30;;;10.20;90.10;;;;;;1872181;75;21123;-41
2021/12/06 10:11:26;;;;;;;31.12;13.48;;;10.20;90.00;;;;;;1872099;76;21052;-43
2021/12/06 10:13:56;;;;;;;35.28;14.28;;;10.20;89.90;;;;;;1872045;75;21024;-40
2021/12/06 10:16:26;;;;;;;31.62;14.38;;;10.20;90.00;;;;;;1872241;75;21036;-41
2021/12/06 10:18:57;;;;;;;27.62;13.98;;;10.20;90.00;;;;;;1872297;77;21582;-40
2021/12/06 10:21:31;;;;;;;32.28;16.50;;;10.30;90.00;;;;;;1872103;75;21127;-40
2021/12/06 10:23:58;;;;;;;28.73;13.10;;;10.20;90.00;;;;;;1870668;75;21013;-40
2021/12/06 10:26:30;;;;;;;28.45;13.32;;;10.30;90.10;;;;;;1869942;75;21177;-39
2021/12/06 10:29:02;;;;;;;33.45;13.72;;;10.30;90.10;;;;;;1884124;75;21098;-38
2021/12/06 10:31:32;;;;;;;26.05;13.68;;;10.30;90.10;;;;;;1879304;75;21106;-39
2021/12/06 10:34:02;;;;;;;28.12;13.43;;;10.40;90.10;;;;;;1871627;75;21047;-39
2021/12/06 10:36:32;;;;;;;27.27;12.63;;;10.40;90.00;;;;;;1872084;75;21086;-39
2021/12/06 10:39:04;;;;;;;27.70;13.65;;;10.50;90.00;;;;;;1880856;75;21428;-39
2021/12/06 10:41:36;;;;;;;26.48;13.55;;;10.50;90.10;;;;;;1885498;75;21075;-39
2021/12/06 10:44:10;;;;;;;26.23;13.43;;;10.60;90.00;;;;;;1904120;74;21109;-40
2021/12/06 10:46:40;;;;;;;21.02;11.83;;;;;;;;;;1904544;75;21119;-39
2021/12/06 10:49:10;;;;;;;19.70;10.88;;;;;;;;;;1902473;75;21520;-39
2021/12/06 10:51:39;;;;;;;24.25;11.63;;;;;;;;;;1902073;75;21059;-38
2021/12/06 10:54:19;;;;;;;23.98;12.47;;;;;;;;;;1897296;75;21160;-39
2021/12/06 10:56:44;;;;;;;18.15;10.68;;;;;;;;;;1895866;75;21472;-39
2021/12/06 10:59:13;;;;;;;21.90;12.13;;;;;;;;;;1896694;75;21552;-39
2021/12/06 11:01:42;;;;;;;21.75;12.55;;;;;;;;;;1894514;75;21055;-39
2021/12/06 11:04:13;;;;;;;22.27;10.53;;;;;;;;;;1897614;75;21039;-39
2021/12/06 11:06:44;;;;;;;19.37;11.25;;;;;;;;;;1893162;75;21073;-40
2021/12/06 11:09:13;;;;;;;22.07;12.40;;;;;;;;;;1882717;75;21123;-40
2021/12/06 11:11:43;;;;;;;17.65;11.12;;;;;;;;;;1880398;74;21150;-40
2021/12/06 11:14:19;;;;;;;19.60;11.78;;;;;;;;;;1880383;75;21553;-39
2021/12/06 11:16:47;;;;;;;21.05;11.75;;;;;;;;;;1883792;74;21085;-40
2021/12/06 11:19:17;;;;;;;22.25;12.70;;;;;;;;;;1882147;74;21100;-40
2021/12/06 11:21:50;;;;;;;23.75;12.00;;;;;;;;;;1887664;75;21018;-38
2021/12/06 11:24:32;;;;;;;20.32;11.80;;;;;;;;;;1875728;74;21213;-40
2021/12/06 11:27:05;;;;;;;19.25;10.98;;;;;;;;;;1875900;75;21116;-40
2021/12/06 11:29:35;;;;;;;19.23;11.63;;;;;;;;;;1890226;75;21010;-39
2021/12/06 11:32:11;;;;;;;26.17;14.25;;;;;;;;;;1889114;74;21352;-39
2021/12/06 11:34:42;;;;;;;23.67;13.15;;;;;;;;;;1867001;75;21143;-40
2021/12/06 11:37:16;;;;;;;19.62;11.48;;;;;;;;;;1876426;75;21010;-41
2021/12/06 11:39:46;;;;;;;21.20;10.68;;;;;;;;;;1868843;75;21186;-40
2021/12/06 11:42:14;;;;;;;17.42;10.45;;;;;;;;;;1866422;77;21471;-39
2021/12/06 11:44:43;;;;;;;20.17;10.60;;;;;;;;;;1867317;75;21155;-39
2021/12/06 11:47:16;;;;;;;21.12;10.63;;;;;;;;;;1866964;77;21095;-39
2021/12/06 11:49:46;;;;;;;14.53;9.68;;;;;;;;;;1866570;76;21057;-40
2021/12/06 11:52:16;;;;;;;13.15;8.75;;;;;;;;;;1866928;75;21134;-41
2021/12/06 11:54:46;;;;;;;18.40;10.32;;;;;;;;;;1871256;77;21102;-40
2021/12/06 11:57:16;;;;;;;19.00;10.45;;;;;;;;;;1870820;77;21130;-40
2021/12/06 11:59:46;;;;;;;31.40;12.55;;;;;;;;;;1870732;76;21122;-40
2021/12/06 12:02:15;;;;;;;23.62;13.70;;;;;;;;;;1870751;76;21074;-40
2021/12/06 12:04:44;;;;;;;19.15;11.22;;;;;;;;;;1870760;76;21147;-40
2021/12/06 12:07:13;;;;;;;20.23;9.55;;;;;;;;;;1872006;77;21156;-39
2021/12/06 12:09:41;;;;;;;25.82;14.30;;;;;;;;;;1871948;76;21257;-40
2021/12/06 12:12:19;;;;;;;19.85;10.98;;;;;;;;;;1872184;77;21015;-39
2021/12/06 12:14:46;;;;;;;16.90;10.08;;;;;;;;;;1871968;76;21110;-39
2021/12/06 12:17:22;;;;;;;15.70;9.73;;;;;;;;;;1872089;77;21622;-40
2021/12/06 12:19:53;;;;;;;18.12;11.00;;;;;;;;;;1871996;77;21031;-39
2021/12/06 12:22:22;;;;;;;18.57;11.18;;;;;;;;;;1872196;77;21051;-40
2021/12/06 12:24:55;;;;;;;24.80;10.93;;;;;;;;;;1872048;77;21027;-40
2021/12/06 12:27:28;;;;;;;27.07;11.73;;;;;;;;;;1871797;76;21027;-40
2021/12/06 12:29:54;;;;;;;21.40;11.20;;;;;;;;;;1871694;76;21569;-39
2021/12/06 12:32:23;;;;;;;20.35;11.10;;;;;;;;;;1872199;76;21438;-40
2021/12/06 12:34:53;;;;;;;20.60;12.03;;;;;;;;;;1872135;76;21065;-39
2021/12/06 12:37:22;;;;;;;20.97;11.78;;;;;;;;;;1872418;75;21031;-39
2021/12/06 12:39:58;;;;;;;28.90;15.45;;;;;;;;;;1872186;77;21019;-39
2021/12/06 12:42:27;;;;;;;29.35;15.25;;;;;;;;;;1872161;77;21007;-39
2021/12/06 12:44:57;;;;;;;23.85;14.45;;;;;;;;;;1872274;76;21035;-39
2021/12/06 12:47:30;;;;;;;19.37;11.22;;;;;;;;;;1872426;77;21035;-40
2021/12/06 12:49:59;;;;;;;25.12;12.88;;;;;;;;;;1872014;76;21066;-39
2021/12/06 12:52:41;;;;;;;18.27;11.83;;;;;;;;;;1872210;77;21499;-39
2021/12/06 12:55:23;;;;;;;18.25;10.63;;;;;;;;;;1872065;76;21094;-39
2021/12/06 12:57:53;;;;;;;18.35;10.88;;;;;;;;;;1872959;76;21105;-40
2021/12/06 13:00:31;;;;;;;18.23;11.33;;;;;;;;;;1871891;76;20999;-39
2021/12/06 13:02:54;;;;;;;20.00;10.28;;;;;;;;;;1872127;76;21039;-40
2021/12/06 13:05:25;;;;;;;30.35;15.18;;;;;;;;;;1872895;77;21489;-40
2021/12/06 13:07:59;;;;;;;29.65;15.30;;;;;;;;;;1873110;77;21523;-40
2021/12/06 13:10:27;;;;;;;21.70;13.25;;;;;;;;;;1871567;76;21035;-40
2021/12/06 13:13:09;;;;;;;26.60;15.03;;;;;;;;;;1872966;77;21003;-40
2021/12/06 13:15:46;;;;;;;24.65;14.13;;;;;;;;;;1872951;76;21442;-40
2021/12/06 13:18:17;;;;;;;21.40;12.55;;;;;;;;;;1872457;76;21160;-40
2021/12/06 13:20:40;;;;;;;25.23;12.93;;;;;;;;;;1870455;76;21039;-40
2021/12/06 13:23:11;;;;;;;38.08;18.67;;;;;;;;;;1873020;77;21175;-40